sensor_id;sensor_type;location;lat;lon;timestamp;P1;durP1;ratioP1;P2;durP2;ratioP2
83682;SDS011;73663;51.298;5.802;2024-01-11T00:03:15;24.25;;;10.95;;
83682;SDS011;73663;51.298;5.802;2024-01-11T00:08:16;27.02;;;11.10;;
83682;SDS011;73663;51.298;5.802;2024-01-11T00:13:17;25.35;;;10.15;;
83682;SDS011;73663;51.298;5.802;2024-01-11T00:18:17;27.05;;;10.73;;
83682;SDS011;73663;51.298;5.802;2024-01-11T00:23:18;29.10;;;10.85;;
83682;SDS011;73663;51.298;5.802;2024-01-11T00:28:19;29.85;;;11.45;;
83682;SDS011;73663;51.298;5.802;2024-01-11T00:33:19;26.77;;;10.68;;
83682;SDS011;73663;51.298;5.802;2024-01-11T00:38:20;30.13;;;10.35;;
83682;SDS011;73663;51.298;5.802;2024-01-11T00:43:20;24.52;;;10.82;;
83682;SDS011;73663;51.298;5.802;2024-01-11T00:48:21;31.30;;;11.63;;
83682;SDS011;73663;51.298;5.802;2024-01-11T00:53:21;26.48;;;9.75;;
83682;SDS011;73663;51.298;5.802;2024-01-11T00:58:22;28.90;;;11.23;;
83682;SDS011;73663;51.298;5.802;2024-01-11T01:03:23;27.20;;;11.90;;
83682;SDS011;73663;51.298;5.802;2024-01-11T01:08:23;25.98;;;11.18;;
83682;SDS011;73663;51.298;5.802;2024-01-11T01:13:24;31.33;;;11.27;;
83682;SDS011;73663;51.298;5.802;2024-01-11T01:18:25;26.75;;;11.25;;
83682;SDS011;73663;51.298;5.802;2024-01-11T01:23:25;28.50;;;10.43;;
83682;SDS011;73663;51.298;5.802;2024-01-11T01:28:26;22.02;;;9.65;;
83682;SDS011;73663;51.298;5.802;2024-01-11T01:33:26;29.95;;;12.23;;
83682;SDS011;73663;51.298;5.802;2024-01-11T01:38:27;35.13;;;11.18;;
83682;SDS011;73663;51.298;5.802;2024-01-11T01:43:27;25.13;;;10.52;;
83682;SDS011;73663;51.298;5.802;2024-01-11T01:48:28;26.70;;;10.50;;
83682;SDS011;73663;51.298;5.802;2024-01-11T01:53:29;32.17;;;12.07;;
83682;SDS011;73663;51.298;5.802;2024-01-11T01:58:30;26.20;;;12.07;;
83682;SDS011;73663;51.298;5.802;2024-01-11T02:03:30;35.17;;;12.30;;
83682;SDS011;73663;51.298;5.802;2024-01-11T02:08:33;29.60;;;10.63;;
83682;SDS011;73663;51.298;5.802;2024-01-11T02:13:35;32.15;;;11.18;;
83682;SDS011;73663;51.298;5.802;2024-01-11T02:18:36;26.63;;;11.60;;
83682;SDS011;73663;51.298;5.802;2024-01-11T02:29:02;23.45;;;9.68;;
83682;SDS011;73663;51.298;5.802;2024-01-11T02:34:03;36.35;;;13.00;;
83682;SDS011;73663;51.298;5.802;2024-01-11T02:39:10;28.38;;;11.80;;
83682;SDS011;73663;51.298;5.802;2024-01-11T02:44:12;26.88;;;12.27;;
83682;SDS011;73663;51.298;5.802;2024-01-11T02:49:13;28.42;;;11.18;;
83682;SDS011;73663;51.298;5.802;2024-01-11T02:54:14;27.48;;;12.70;;
83682;SDS011;73663;51.298;5.802;2024-01-11T02:59:14;28.48;;;12.40;;
83682;SDS011;73663;51.298;5.802;2024-01-11T03:04:15;27.48;;;11.88;;
83682;SDS011;73663;51.298;5.802;2024-01-11T03:09:16;27.30;;;11.73;;
83682;SDS011;73663;51.298;5.802;2024-01-11T03:14:17;32.13;;;12.10;;
83682;SDS011;73663;51.298;5.802;2024-01-11T03:19:18;27.88;;;12.27;;
83682;SDS011;73663;51.298;5.802;2024-01-11T03:24:18;28.55;;;10.93;;
83682;SDS011;73663;51.298;5.802;2024-01-11T03:29:19;33.63;;;12.98;;
83682;SDS011;73663;51.298;5.802;2024-01-11T03:34:19;28.23;;;11.13;;
83682;SDS011;73663;51.298;5.802;2024-01-11T03:39:20;25.15;;;10.27;;
83682;SDS011;73663;51.298;5.802;2024-01-11T03:44:20;29.23;;;10.98;;
83682;SDS011;73663;51.298;5.802;2024-01-11T03:49:22;31.77;;;13.10;;
83682;SDS011;73663;51.298;5.802;2024-01-11T03:54:22;27.20;;;12.18;;
83682;SDS011;73663;51.298;5.802;2024-01-11T03:59:23;27.75;;;11.73;;
83682;SDS011;73663;51.298;5.802;2024-01-11T04:04:23;33.22;;;11.90;;
83682;SDS011;73663;51.298;5.802;2024-01-11T04:09:24;26.50;;;12.80;;
83682;SDS011;73663;51.298;5.802;2024-01-11T04:14:24;35.47;;;12.02;;
83682;SDS011;73663;51.298;5.802;2024-01-11T04:19:25;27.98;;;12.73;;
83682;SDS011;73663;51.298;5.802;2024-01-11T04:24:26;33.72;;;12.30;;
83682;SDS011;73663;51.298;5.802;2024-01-11T04:29:26;30.52;;;12.77;;
83682;SDS011;73663;51.298;5.802;2024-01-11T04:34:27;31.60;;;12.85;;
83682;SDS011;73663;51.298;5.802;2024-01-11T04:39:27;29.92;;;12.43;;
83682;SDS011;73663;51.298;5.802;2024-01-11T04:44:28;31.90;;;13.38;;
83682;SDS011;73663;51.298;5.802;2024-01-11T04:49:28;28.40;;;11.80;;
83682;SDS011;73663;51.298;5.802;2024-01-11T04:54:29;28.48;;;12.65;;
83682;SDS011;73663;51.298;5.802;2024-01-11T04:59:29;27.40;;;11.88;;
83682;SDS011;73663;51.298;5.802;2024-01-11T05:04:36;31.50;;;12.73;;
83682;SDS011;73663;51.298;5.802;2024-01-11T05:09:36;31.65;;;12.38;;
83682;SDS011;73663;51.298;5.802;2024-01-11T05:14:37;32.78;;;12.82;;
83682;SDS011;73663;51.298;5.802;2024-01-11T05:19:38;29.90;;;13.60;;
83682;SDS011;73663;51.298;5.802;2024-01-11T05:24:38;34.55;;;12.90;;
83682;SDS011;73663;51.298;5.802;2024-01-11T05:29:39;30.70;;;11.82;;
83682;SDS011;73663;51.298;5.802;2024-01-11T05:34:39;33.28;;;12.82;;
83682;SDS011;73663;51.298;5.802;2024-01-11T05:39:40;27.83;;;11.63;;
83682;SDS011;73663;51.298;5.802;2024-01-11T05:44:41;29.02;;;12.85;;
83682;SDS011;73663;51.298;5.802;2024-01-11T05:49:41;29.13;;;12.18;;
83682;SDS011;73663;51.298;5.802;2024-01-11T05:54:42;26.92;;;12.18;;
83682;SDS011;73663;51.298;5.802;2024-01-11T05:59:43;31.65;;;11.88;;
83682;SDS011;73663;51.298;5.802;2024-01-11T06:04:45;34.92;;;13.38;;
83682;SDS011;73663;51.298;5.802;2024-01-11T06:09:46;30.38;;;13.48;;
83682;SDS011;73663;51.298;5.802;2024-01-11T06:14:47;32.58;;;14.02;;
83682;SDS011;73663;51.298;5.802;2024-01-11T06:19:48;34.30;;;11.75;;
83682;SDS011;73663;51.298;5.802;2024-01-11T06:24:48;28.35;;;12.52;;
83682;SDS011;73663;51.298;5.802;2024-01-11T06:29:49;33.03;;;11.93;;
83682;SDS011;73663;51.298;5.802;2024-01-11T06:34:49;28.15;;;11.27;;
83682;SDS011;73663;51.298;5.802;2024-01-11T06:39:50;33.83;;;11.95;;
83682;SDS011;73663;51.298;5.802;2024-01-11T06:44:50;32.05;;;12.60;;
83682;SDS011;73663;51.298;5.802;2024-01-11T06:49:51;29.42;;;10.95;;
83682;SDS011;73663;51.298;5.802;2024-01-11T06:54:51;34.85;;;14.18;;
83682;SDS011;73663;51.298;5.802;2024-01-11T06:59:52;37.05;;;12.98;;
83682;SDS011;73663;51.298;5.802;2024-01-11T07:04:53;35.10;;;13.48;;
83682;SDS011;73663;51.298;5.802;2024-01-11T07:09:53;35.28;;;13.73;;
83682;SDS011;73663;51.298;5.802;2024-01-11T07:14:55;30.75;;;10.52;;
83682;SDS011;73663;51.298;5.802;2024-01-11T07:19:56;28.52;;;13.05;;
83682;SDS011;73663;51.298;5.802;2024-01-11T07:24:56;28.05;;;12.88;;
83682;SDS011;73663;51.298;5.802;2024-01-11T07:29:57;30.60;;;12.32;;
83682;SDS011;73663;51.298;5.802;2024-01-11T07:34:58;25.90;;;11.02;;
83682;SDS011;73663;51.298;5.802;2024-01-11T07:39:59;24.02;;;11.20;;
83682;SDS011;73663;51.298;5.802;2024-01-11T07:44:59;29.80;;;12.25;;
83682;SDS011;73663;51.298;5.802;2024-01-11T07:50:00;29.42;;;11.00;;
83682;SDS011;73663;51.298;5.802;2024-01-11T07:55:00;22.80;;;10.95;;
83682;SDS011;73663;51.298;5.802;2024-01-11T08:00:06;29.38;;;11.70;;
83682;SDS011;73663;51.298;5.802;2024-01-11T08:05:07;28.05;;;11.63;;
83682;SDS011;73663;51.298;5.802;2024-01-11T08:10:08;28.52;;;11.15;;
83682;SDS011;73663;51.298;5.802;2024-01-11T08:15:09;24.58;;;10.18;;
83682;SDS011;73663;51.298;5.802;2024-01-11T08:20:12;30.10;;;12.43;;
83682;SDS011;73663;51.298;5.802;2024-01-11T08:25:13;35.95;;;11.48;;
83682;SDS011;73663;51.298;5.802;2024-01-11T08:30:14;25.90;;;10.73;;
83682;SDS011;73663;51.298;5.802;2024-01-11T08:35:15;26.98;;;12.63;;
83682;SDS011;73663;51.298;5.802;2024-01-11T08:40:16;26.10;;;10.35;;
83682;SDS011;73663;51.298;5.802;2024-01-11T08:45:17;22.75;;;10.60;;
83682;SDS011;73663;51.298;5.802;2024-01-11T08:50:17;38.33;;;12.68;;
83682;SDS011;73663;51.298;5.802;2024-01-11T08:55:18;32.50;;;11.73;;
83682;SDS011;73663;51.298;5.802;2024-01-11T09:00:19;20.73;;;8.43;;
83682;SDS011;73663;51.298;5.802;2024-01-11T09:05:19;30.23;;;12.55;;
83682;SDS011;73663;51.298;5.802;2024-01-11T09:10:21;29.42;;;12.27;;
83682;SDS011;73663;51.298;5.802;2024-01-11T09:15:22;31.00;;;11.68;;
83682;SDS011;73663;51.298;5.802;2024-01-11T09:20:22;26.92;;;12.40;;
83682;SDS011;73663;51.298;5.802;2024-01-11T09:25:23;29.23;;;12.60;;
83682;SDS011;73663;51.298;5.802;2024-01-11T09:30:23;28.35;;;11.52;;
83682;SDS011;73663;51.298;5.802;2024-01-11T09:35:24;31.48;;;11.23;;
83682;SDS011;73663;51.298;5.802;2024-01-11T09:40:25;27.50;;;11.55;;
83682;SDS011;73663;51.298;5.802;2024-01-11T09:45:25;30.52;;;12.20;;
83682;SDS011;73663;51.298;5.802;2024-01-11T09:50:26;30.55;;;12.60;;
83682;SDS011;73663;51.298;5.802;2024-01-11T09:55:28;29.50;;;12.88;;
83682;SDS011;73663;51.298;5.802;2024-01-11T10:00:28;30.35;;;14.20;;
83682;SDS011;73663;51.298;5.802;2024-01-11T10:05:30;30.15;;;12.23;;
83682;SDS011;73663;51.298;5.802;2024-01-11T10:10:34;32.55;;;12.98;;
83682;SDS011;73663;51.298;5.802;2024-01-11T10:15:34;31.27;;;12.15;;
83682;SDS011;73663;51.298;5.802;2024-01-11T10:20:35;24.73;;;11.93;;
83682;SDS011;73663;51.298;5.802;2024-01-11T10:25:35;29.98;;;12.52;;
83682;SDS011;73663;51.298;5.802;2024-01-11T10:30:36;26.40;;;12.90;;
83682;SDS011;73663;51.298;5.802;2024-01-11T10:35:36;28.05;;;13.82;;
83682;SDS011;73663;51.298;5.802;2024-01-11T10:40:37;28.05;;;12.57;;
83682;SDS011;73663;51.298;5.802;2024-01-11T10:45:37;28.08;;;12.55;;
83682;SDS011;73663;51.298;5.802;2024-01-11T10:50:42;26.40;;;11.90;;
83682;SDS011;73663;51.298;5.802;2024-01-11T10:55:44;25.25;;;13.18;;
83682;SDS011;73663;51.298;5.802;2024-01-11T11:00:46;30.50;;;13.85;;
83682;SDS011;73663;51.298;5.802;2024-01-11T11:05:58;27.15;;;12.40;;
83682;SDS011;73663;51.298;5.802;2024-01-11T11:10:59;27.50;;;13.70;;
83682;SDS011;73663;51.298;5.802;2024-01-11T11:16:04;28.20;;;12.63;;
83682;SDS011;73663;51.298;5.802;2024-01-11T11:21:09;23.10;;;13.43;;
83682;SDS011;73663;51.298;5.802;2024-01-11T11:26:16;26.70;;;12.73;;
83682;SDS011;73663;51.298;5.802;2024-01-11T11:31:42;29.25;;;13.85;;
83682;SDS011;73663;51.298;5.802;2024-01-11T11:36:46;25.17;;;12.50;;
83682;SDS011;73663;51.298;5.802;2024-01-11T11:41:47;26.88;;;13.13;;
83682;SDS011;73663;51.298;5.802;2024-01-11T11:46:49;24.80;;;12.77;;
83682;SDS011;73663;51.298;5.802;2024-01-11T11:51:50;24.70;;;13.07;;
83682;SDS011;73663;51.298;5.802;2024-01-11T11:56:51;25.02;;;13.43;;
83682;SDS011;73663;51.298;5.802;2024-01-11T12:01:52;20.42;;;11.85;;
83682;SDS011;73663;51.298;5.802;2024-01-11T12:06:53;21.35;;;11.50;;
83682;SDS011;73663;51.298;5.802;2024-01-11T12:11:54;22.73;;;12.25;;
83682;SDS011;73663;51.298;5.802;2024-01-11T12:16:58;23.00;;;12.30;;
83682;SDS011;73663;51.298;5.802;2024-01-11T12:26:59;20.23;;;11.65;;
83682;SDS011;73663;51.298;5.802;2024-01-11T12:32:01;20.25;;;10.98;;
83682;SDS011;73663;51.298;5.802;2024-01-11T12:37:02;18.42;;;10.13;;
83682;SDS011;73663;51.298;5.802;2024-01-11T12:42:05;21.33;;;11.23;;
83682;SDS011;73663;51.298;5.802;2024-01-11T12:47:07;20.75;;;11.43;;
83682;SDS011;73663;51.298;5.802;2024-01-11T12:52:08;18.08;;;11.32;;
83682;SDS011;73663;51.298;5.802;2024-01-11T12:57:19;19.55;;;10.00;;
83682;SDS011;73663;51.298;5.802;2024-01-11T13:02:19;20.75;;;10.80;;
83682;SDS011;73663;51.298;5.802;2024-01-11T13:07:20;18.23;;;10.48;;
83682;SDS011;73663;51.298;5.802;2024-01-11T13:12:23;17.98;;;10.32;;
83682;SDS011;73663;51.298;5.802;2024-01-11T13:17:23;19.73;;;11.50;;
83682;SDS011;73663;51.298;5.802;2024-01-11T13:22:24;21.40;;;11.35;;
83682;SDS011;73663;51.298;5.802;2024-01-11T13:27:25;21.50;;;10.75;;
83682;SDS011;73663;51.298;5.802;2024-01-11T13:32:25;23.27;;;11.70;;
83682;SDS011;73663;51.298;5.802;2024-01-11T13:37:26;23.45;;;11.77;;
83682;SDS011;73663;51.298;5.802;2024-01-11T13:42:27;24.13;;;12.23;;
83682;SDS011;73663;51.298;5.802;2024-01-11T13:47:28;26.73;;;12.68;;
83682;SDS011;73663;51.298;5.802;2024-01-11T13:52:29;26.73;;;12.90;;
83682;SDS011;73663;51.298;5.802;2024-01-11T13:57:30;21.73;;;11.02;;
83682;SDS011;73663;51.298;5.802;2024-01-11T14:02:30;22.90;;;11.00;;
83682;SDS011;73663;51.298;5.802;2024-01-11T14:07:31;22.48;;;10.98;;
83682;SDS011;73663;51.298;5.802;2024-01-11T14:12:39;22.40;;;10.73;;
83682;SDS011;73663;51.298;5.802;2024-01-11T14:17:40;21.83;;;9.57;;
83682;SDS011;73663;51.298;5.802;2024-01-11T14:22:41;19.00;;;9.27;;
83682;SDS011;73663;51.298;5.802;2024-01-11T14:27:47;30.88;;;12.45;;
83682;SDS011;73663;51.298;5.802;2024-01-11T14:32:48;23.27;;;12.75;;
83682;SDS011;73663;51.298;5.802;2024-01-11T14:37:49;30.73;;;14.20;;
83682;SDS011;73663;51.298;5.802;2024-01-11T14:42:50;28.60;;;13.90;;
83682;SDS011;73663;51.298;5.802;2024-01-11T14:47:57;11.77;;;5.03;;
83682;SDS011;73663;51.298;5.802;2024-01-11T14:52:58;12.40;;;5.10;;
83682;SDS011;73663;51.298;5.802;2024-01-11T14:57:58;10.15;;;5.10;;
83682;SDS011;73663;51.298;5.802;2024-01-11T15:02:59;10.57;;;4.10;;
83682;SDS011;73663;51.298;5.802;2024-01-11T15:07:59;10.75;;;4.78;;
83682;SDS011;73663;51.298;5.802;2024-01-11T15:55:06;14.90;;;5.15;;
83682;SDS011;73663;51.298;5.802;2024-01-11T16:00:09;11.02;;;4.90;;
83682;SDS011;73663;51.298;5.802;2024-01-11T16:05:17;15.75;;;5.70;;
83682;SDS011;73663;51.298;5.802;2024-01-11T16:10:17;12.07;;;5.68;;
83682;SDS011;73663;51.298;5.802;2024-01-11T16:15:18;11.63;;;5.00;;
83682;SDS011;73663;51.298;5.802;2024-01-11T16:20:19;12.38;;;4.32;;
83682;SDS011;73663;51.298;5.802;2024-01-11T16:25:20;11.98;;;4.65;;
83682;SDS011;73663;51.298;5.802;2024-01-11T16:30:21;16.23;;;6.15;;
83682;SDS011;73663;51.298;5.802;2024-01-11T16:35:21;12.93;;;4.70;;
83682;SDS011;73663;51.298;5.802;2024-01-11T16:40:22;15.00;;;5.50;;
83682;SDS011;73663;51.298;5.802;2024-01-11T16:45:23;13.25;;;5.43;;
83682;SDS011;73663;51.298;5.802;2024-01-11T16:50:23;11.70;;;5.57;;
83682;SDS011;73663;51.298;5.802;2024-01-11T16:55:24;13.52;;;5.18;;
83682;SDS011;73663;51.298;5.802;2024-01-11T17:00:24;13.38;;;5.60;;
83682;SDS011;73663;51.298;5.802;2024-01-11T17:05:26;14.23;;;5.55;;
83682;SDS011;73663;51.298;5.802;2024-01-11T17:10:27;16.48;;;5.57;;
83682;SDS011;73663;51.298;5.802;2024-01-11T17:15:28;13.40;;;5.78;;
83682;SDS011;73663;51.298;5.802;2024-01-11T17:20:28;10.07;;;4.68;;
83682;SDS011;73663;51.298;5.802;2024-01-11T17:25:29;15.43;;;5.18;;
83682;SDS011;73663;51.298;5.802;2024-01-11T17:30:29;16.80;;;5.35;;
83682;SDS011;73663;51.298;5.802;2024-01-11T17:35:30;15.93;;;5.30;;
83682;SDS011;73663;51.298;5.802;2024-01-11T17:40:30;13.10;;;4.68;;
83682;SDS011;73663;51.298;5.802;2024-01-11T17:45:33;14.55;;;6.20;;
83682;SDS011;73663;51.298;5.802;2024-01-11T17:50:39;16.38;;;5.50;;
83682;SDS011;73663;51.298;5.802;2024-01-11T17:55:40;16.77;;;6.55;;
83682;SDS011;73663;51.298;5.802;2024-01-11T18:00:41;18.63;;;7.60;;
83682;SDS011;73663;51.298;5.802;2024-01-11T18:05:41;16.35;;;5.90;;
83682;SDS011;73663;51.298;5.802;2024-01-11T18:10:42;18.13;;;6.32;;
83682;SDS011;73663;51.298;5.802;2024-01-11T18:15:43;15.23;;;7.00;;
83682;SDS011;73663;51.298;5.802;2024-01-11T18:20:43;18.52;;;6.60;;
83682;SDS011;73663;51.298;5.802;2024-01-11T18:25:44;19.50;;;6.60;;
83682;SDS011;73663;51.298;5.802;2024-01-11T18:30:44;18.55;;;7.43;;
83682;SDS011;73663;51.298;5.802;2024-01-11T18:35:45;14.77;;;6.78;;
83682;SDS011;73663;51.298;5.802;2024-01-11T18:40:46;17.05;;;6.63;;
83682;SDS011;73663;51.298;5.802;2024-01-11T18:45:47;20.60;;;8.20;;
83682;SDS011;73663;51.298;5.802;2024-01-11T18:50:48;15.82;;;5.78;;
83682;SDS011;73663;51.298;5.802;2024-01-11T18:55:49;14.45;;;5.90;;
83682;SDS011;73663;51.298;5.802;2024-01-11T19:00:56;13.93;;;5.82;;
83682;SDS011;73663;51.298;5.802;2024-01-11T19:05:57;14.10;;;5.43;;
83682;SDS011;73663;51.298;5.802;2024-01-11T19:10:58;16.13;;;6.22;;
83682;SDS011;73663;51.298;5.802;2024-01-11T19:15:59;15.90;;;6.00;;
83682;SDS011;73663;51.298;5.802;2024-01-11T19:21:00;14.20;;;6.30;;
83682;SDS011;73663;51.298;5.802;2024-01-11T19:26:01;19.33;;;7.60;;
83682;SDS011;73663;51.298;5.802;2024-01-11T19:31:03;14.13;;;5.28;;
83682;SDS011;73663;51.298;5.802;2024-01-11T19:36:04;20.38;;;8.25;;
83682;SDS011;73663;51.298;5.802;2024-01-11T19:41:05;31.45;;;8.30;;
83682;SDS011;73663;51.298;5.802;2024-01-11T19:46:05;25.77;;;9.85;;
83682;SDS011;73663;51.298;5.802;2024-01-11T19:51:09;22.92;;;7.82;;
83682;SDS011;73663;51.298;5.802;2024-01-11T20:01:17;25.20;;;9.23;;
83682;SDS011;73663;51.298;5.802;2024-01-11T20:06:18;30.02;;;9.88;;
83682;SDS011;73663;51.298;5.802;2024-01-11T20:11:18;34.67;;;10.43;;
83682;SDS011;73663;51.298;5.802;2024-01-11T20:16:19;31.23;;;11.38;;
83682;SDS011;73663;51.298;5.802;2024-01-11T20:21:20;28.35;;;11.38;;
83682;SDS011;73663;51.298;5.802;2024-01-11T20:26:23;30.30;;;10.82;;
83682;SDS011;73663;51.298;5.802;2024-01-11T20:31:29;32.38;;;12.52;;
83682;SDS011;73663;51.298;5.802;2024-01-11T20:36:31;32.05;;;12.57;;
83682;SDS011;73663;51.298;5.802;2024-01-11T20:41:31;33.22;;;12.88;;
83682;SDS011;73663;51.298;5.802;2024-01-11T20:46:42;34.13;;;13.70;;
83682;SDS011;73663;51.298;5.802;2024-01-11T20:51:43;33.92;;;12.63;;
83682;SDS011;73663;51.298;5.802;2024-01-11T20:56:45;49.63;;;14.65;;
83682;SDS011;73663;51.298;5.802;2024-01-11T21:01:45;35.17;;;14.57;;
83682;SDS011;73663;51.298;5.802;2024-01-11T21:06:46;38.72;;;15.05;;
83682;SDS011;73663;51.298;5.802;2024-01-11T21:11:47;40.33;;;14.68;;
83682;SDS011;73663;51.298;5.802;2024-01-11T21:16:47;40.38;;;16.30;;
83682;SDS011;73663;51.298;5.802;2024-01-11T21:21:48;41.97;;;16.50;;
83682;SDS011;73663;51.298;5.802;2024-01-11T21:26:50;44.08;;;17.17;;
83682;SDS011;73663;51.298;5.802;2024-01-11T21:31:57;41.58;;;16.90;;
83682;SDS011;73663;51.298;5.802;2024-01-11T21:36:58;46.65;;;17.17;;
83682;SDS011;73663;51.298;5.802;2024-01-11T21:41:58;47.63;;;19.15;;
83682;SDS011;73663;51.298;5.802;2024-01-11T21:46:59;46.90;;;17.33;;
83682;SDS011;73663;51.298;5.802;2024-01-11T21:52:00;41.42;;;17.65;;
83682;SDS011;73663;51.298;5.802;2024-01-11T21:57:01;43.40;;;17.17;;
83682;SDS011;73663;51.298;5.802;2024-01-11T22:02:01;51.03;;;20.75;;
83682;SDS011;73663;51.298;5.802;2024-01-11T22:07:03;47.80;;;17.15;;
83682;SDS011;73663;51.298;5.802;2024-01-11T22:12:04;42.67;;;17.58;;
83682;SDS011;73663;51.298;5.802;2024-01-11T22:17:06;44.35;;;18.42;;
83682;SDS011;73663;51.298;5.802;2024-01-11T22:22:07;39.55;;;15.85;;
83682;SDS011;73663;51.298;5.802;2024-01-11T22:27:08;56.35;;;20.23;;
83682;SDS011;73663;51.298;5.802;2024-01-11T22:32:09;50.25;;;20.38;;
83682;SDS011;73663;51.298;5.802;2024-01-11T22:37:09;52.08;;;18.90;;
83682;SDS011;73663;51.298;5.802;2024-01-11T22:42:10;60.60;;;21.55;;
83682;SDS011;73663;51.298;5.802;2024-01-11T22:47:10;60.55;;;20.85;;
83682;SDS011;73663;51.298;5.802;2024-01-11T22:52:11;67.25;;;22.33;;
83682;SDS011;73663;51.298;5.802;2024-01-11T22:57:12;65.25;;;21.80;;
83682;SDS011;73663;51.298;5.802;2024-01-11T23:02:19;62.08;;;21.80;;
83682;SDS011;73663;51.298;5.802;2024-01-11T23:07:26;63.58;;;21.98;;
83682;SDS011;73663;51.298;5.802;2024-01-11T23:12:27;66.90;;;21.80;;
83682;SDS011;73663;51.298;5.802;2024-01-11T23:17:28;58.42;;;21.58;;
83682;SDS011;73663;51.298;5.802;2024-01-11T23:22:28;54.38;;;22.40;;
83682;SDS011;73663;51.298;5.802;2024-01-11T23:27:29;64.70;;;21.35;;
83682;SDS011;73663;51.298;5.802;2024-01-11T23:32:29;49.08;;;20.95;;
83682;SDS011;73663;51.298;5.802;2024-01-11T23:37:30;59.10;;;20.25;;
83682;SDS011;73663;51.298;5.802;2024-01-11T23:42:31;58.97;;;21.90;;
83682;SDS011;73663;51.298;5.802;2024-01-11T23:47:31;51.97;;;19.85;;
83682;SDS011;73663;51.298;5.802;2024-01-11T23:52:33;50.88;;;19.05;;
83682;SDS011;73663;51.298;5.802;2024-01-11T23:57:34;49.80;;;19.33;;
